createdAt,value
2023-01-22T00:03:30.835Z,10.37
2023-01-22T00:05:57.987Z,10.32
2023-01-22T00:08:25.360Z,10.41
2023-01-22T00:10:53.085Z,10.45
2023-01-22T00:13:21.051Z,10.46
2023-01-22T00:15:48.228Z,10.45
2023-01-22T00:18:15.383Z,10.41
2023-01-22T00:20:46.795Z,10.37
2023-01-22T00:23:13.849Z,10.33
2023-01-22T00:25:40.898Z,10.29
2023-01-22T00:28:08.149Z,10.27
2023-01-22T00:30:35.403Z,10.25
2023-01-22T00:33:02.444Z,10.23
2023-01-22T00:35:29.504Z,10.24
2023-01-22T00:37:56.538Z,10.24
2023-01-22T00:40:23.689Z,10.25
2023-01-22T00:42:50.843Z,10.27
2023-01-22T00:45:17.997Z,10.28
2023-01-22T00:47:45.036Z,10.27
2023-01-22T00:50:12.091Z,10.26
2023-01-22T00:52:39.229Z,10.24
2023-01-22T00:55:07.211Z,10.22
2023-01-22T00:57:34.878Z,10.20
2023-01-22T04:14:57.414Z,7.00
2023-01-22T04:17:26.915Z,8.10
2023-01-22T04:20:12.602Z,8.30
2023-01-22T04:23:06.583Z,8.41
2023-01-22T04:25:35.167Z,8.46
2023-01-22T04:28:02.621Z,8.52
2023-01-22T04:30:30.184Z,8.57
2023-01-22T04:33:08.493Z,8.61
2023-01-22T04:35:55.715Z,8.66
2023-01-22T04:38:23.373Z,8.69
2023-01-22T04:40:52.161Z,8.72
2023-01-22T04:43:19.719Z,8.74
2023-01-22T04:45:49.751Z,8.77
2023-01-22T04:48:18.733Z,8.81
2023-01-22T04:50:46.907Z,8.85
2023-01-22T04:53:14.459Z,8.90
2023-01-22T04:55:42.339Z,8.95
2023-01-22T04:58:10.609Z,8.99
2023-01-22T05:00:38.166Z,9.01
2023-01-22T05:03:05.724Z,9.01
2023-01-22T05:05:34.200Z,9.04
2023-01-22T05:08:01.757Z,9.07
2023-01-22T05:10:30.135Z,9.09
2023-01-22T05:13:02.404Z,9.10
2023-01-22T05:15:29.616Z,9.11
2023-01-22T05:18:02.472Z,9.10
2023-01-22T05:20:29.894Z,9.09
2023-01-22T05:22:59.193Z,9.06
2023-01-22T05:25:27.167Z,9.04
2023-01-22T05:27:55.949Z,9.02
2023-01-22T05:30:49.182Z,9.00
2023-01-22T05:33:29.878Z,8.99
2023-01-22T05:35:58.152Z,8.98
2023-01-22T05:38:25.815Z,8.97
2023-01-22T05:40:53.579Z,8.93
2023-01-22T05:43:26.051Z,8.91
2023-01-22T05:46:02.257Z,8.89
2023-01-22T05:48:49.534Z,8.88
2023-01-22T05:51:32.433Z,8.86
2023-01-22T05:54:00.048Z,8.82
2023-01-22T05:56:31.211Z,8.80
2023-01-22T05:58:58.101Z,8.78
2023-01-22T06:01:25.296Z,8.77
2023-01-22T06:03:52.632Z,8.75
2023-01-22T06:06:23.548Z,8.72
2023-01-22T06:08:52.354Z,8.70
2023-01-22T06:11:20.622Z,8.69
2023-01-22T06:13:47.773Z,8.66
2023-01-22T06:16:16.980Z,8.64
2023-01-22T06:18:54.239Z,8.59
2023-01-22T06:21:22.241Z,8.57
2023-01-22T06:23:49.251Z,8.55
2023-01-22T06:26:16.916Z,8.54
2023-01-22T06:28:44.165Z,8.53
2023-01-22T06:31:12.116Z,8.53
2023-01-22T06:33:40.935Z,8.54
2023-01-22T06:36:08.695Z,8.54
2023-01-22T06:38:36.768Z,8.52
2023-01-22T06:41:04.732Z,8.47
2023-01-22T06:43:33.215Z,8.41
2023-01-22T06:46:00.560Z,8.37
2023-01-22T06:48:50.747Z,8.34
2023-01-22T06:51:17.775Z,8.33
2023-01-22T06:53:45.764Z,8.28
2023-01-22T06:56:12.711Z,8.28
2023-01-22T06:58:39.963Z,8.29
2023-01-22T07:01:07.317Z,8.27
2023-01-22T07:03:34.999Z,8.24
2023-01-22T07:06:03.456Z,8.24
2023-01-22T07:08:31.432Z,8.16
2023-01-22T07:10:58.985Z,8.24
2023-01-22T07:13:26.563Z,8.31
2023-01-22T07:15:53.662Z,8.31
2023-01-22T07:18:23.455Z,8.32
2023-01-22T07:20:50.755Z,8.31
2023-01-22T07:23:18.112Z,8.32
2023-01-22T07:25:46.190Z,8.33
2023-01-22T07:28:16.916Z,8.37
2023-01-22T07:30:46.470Z,8.40
2023-01-22T07:33:14.180Z,8.42
2023-01-22T07:35:41.126Z,8.44
2023-01-22T07:38:08.394Z,8.46
2023-01-22T07:40:35.736Z,8.48
2023-01-22T07:43:06.563Z,8.48
2023-01-22T07:45:36.174Z,8.48
2023-01-22T07:48:07.213Z,8.48
2023-01-22T07:50:36.350Z,8.47
2023-01-22T07:53:03.366Z,8.47
2023-01-22T07:55:32.256Z,8.46
2023-01-22T07:58:01.340Z,8.46
2023-01-22T08:00:28.392Z,8.45
2023-01-22T08:02:58.811Z,8.44
2023-01-22T08:05:25.969Z,8.44
2023-01-22T08:07:53.434Z,8.46
2023-01-22T08:10:21.019Z,8.46
2023-01-22T08:12:49.766Z,8.47
2023-01-22T08:15:16.916Z,8.46
2023-01-22T08:17:43.972Z,8.48
2023-01-22T08:20:11.728Z,8.51
2023-01-22T08:22:39.508Z,8.52
2023-01-22T08:25:07.354Z,8.54
2023-01-22T08:27:34.811Z,8.55
2023-01-22T08:30:03.508Z,8.57
2023-01-22T08:32:31.042Z,8.60
2023-01-22T08:34:58.297Z,8.61
2023-01-22T08:37:25.358Z,8.63
2023-01-22T08:39:52.303Z,8.64
2023-01-22T08:42:19.451Z,8.64
2023-01-22T08:44:46.484Z,8.64
2023-01-22T08:47:13.451Z,8.65
2023-01-22T08:49:40.593Z,8.62
2023-01-22T08:52:07.637Z,8.61
2023-01-22T08:54:35.603Z,8.58
2023-01-22T08:57:02.767Z,8.54
2023-01-22T08:59:31.067Z,8.49
2023-01-22T09:01:59.327Z,8.44
2023-01-22T09:04:26.968Z,8.40
2023-01-22T09:06:54.358Z,8.37
2023-01-22T09:09:21.481Z,8.34
2023-01-22T09:11:48.547Z,8.31
2023-01-22T09:14:15.667Z,8.27
2023-01-22T09:16:42.679Z,8.22
2023-01-22T09:19:09.872Z,8.17
2023-01-22T09:21:37.723Z,8.14
2023-01-22T09:24:05.799Z,8.12
2023-01-22T09:26:34.207Z,8.09
2023-01-22T09:29:03.799Z,8.07
2023-01-22T09:31:34.890Z,8.04
2023-01-22T09:34:02.097Z,8.03
2023-01-22T09:36:29.850Z,8.00
2023-01-22T09:38:56.792Z,8.00
2023-01-22T09:41:33.865Z,8.00
2023-01-22T09:44:29.889Z,8.00
2023-01-22T09:47:02.978Z,8.00
2023-01-22T09:49:55.890Z,8.00
2023-01-22T09:52:28.343Z,8.01
2023-01-22T09:54:55.675Z,8.01
2023-01-22T09:57:31.321Z,8.02
2023-01-22T09:59:59.407Z,8.05
2023-01-22T13:09:24.309Z,4.82
2023-01-22T13:11:51.562Z,5.90
2023-01-22T13:14:21.232Z,6.05
2023-01-22T13:16:56.811Z,6.15
2023-01-22T13:19:26.623Z,6.22
2023-01-22T13:21:57.053Z,6.27
2023-01-22T13:24:24.608Z,6.31
2023-01-22T13:26:56.772Z,6.36
2023-01-22T13:29:36.369Z,6.39
2023-01-22T13:32:14.626Z,6.43
2023-01-22T13:34:41.572Z,6.47
2023-01-22T13:37:22.340Z,6.52
2023-01-22T13:39:53.278Z,6.58
2023-01-22T13:42:20.428Z,6.61
2023-01-22T13:44:50.953Z,6.61
2023-01-22T13:47:33.158Z,6.59
2023-01-22T13:50:00.656Z,6.59
2023-01-22T13:52:28.588Z,6.60
2023-01-22T13:55:00.440Z,6.60
2023-01-22T13:57:27.492Z,6.63
2023-01-22T13:59:55.997Z,6.64
2023-01-22T14:02:32.035Z,6.67
2023-01-22T14:04:59.277Z,6.68
2023-01-22T14:07:33.088Z,6.69
2023-01-22T14:10:18.698Z,6.69
2023-01-22T14:12:46.222Z,6.68
2023-01-22T14:15:17.946Z,6.66
2023-01-22T14:17:44.827Z,6.64
2023-01-22T14:20:12.186Z,6.63
2023-01-22T14:22:39.751Z,6.63
2023-01-22T14:25:08.215Z,6.64
2023-01-22T14:27:46.756Z,6.65
2023-01-22T14:30:16.209Z,6.64
2023-01-22T14:32:43.697Z,6.61
2023-01-22T14:35:18.726Z,6.58
2023-01-22T14:37:46.104Z,6.55
2023-01-22T14:40:14.234Z,6.54
2023-01-22T14:42:41.812Z,6.54
2023-01-22T14:45:09.786Z,6.51
2023-01-22T14:47:37.141Z,6.47
2023-01-22T14:50:05.924Z,6.48
2023-01-22T14:52:34.033Z,6.49
2023-01-22T14:55:01.040Z,6.50
2023-01-22T14:57:28.089Z,6.51
2023-01-22T14:59:55.645Z,6.53
2023-01-22T15:02:23.115Z,6.55
2023-01-22T15:04:50.372Z,6.56
2023-01-22T15:07:17.376Z,6.55
2023-01-22T15:09:44.346Z,6.57
2023-01-22T15:12:11.397Z,6.57
2023-01-22T15:14:39.157Z,6.56
2023-01-22T15:17:06.407Z,6.53
2023-01-22T15:19:40.887Z,6.53
2023-01-22T15:22:09.621Z,6.53
2023-01-22T15:24:39.020Z,6.54
2023-01-22T15:27:06.882Z,6.52
2023-01-22T15:29:33.832Z,6.50
2023-01-22T15:32:03.024Z,6.52
2023-01-22T15:34:30.993Z,6.54
2023-01-22T15:36:58.257Z,6.56
2023-01-22T15:39:29.107Z,6.59
2023-01-22T15:41:56.946Z,6.60
2023-01-22T15:44:24.094Z,6.61
2023-01-22T15:46:51.232Z,6.58
2023-01-22T15:49:18.404Z,6.57
2023-01-22T15:51:45.444Z,6.56
2023-01-22T15:54:14.637Z,6.56
2023-01-22T15:56:41.890Z,6.59
2023-01-22T15:59:10.067Z,6.58
2023-01-22T16:01:37.335Z,6.54
2023-01-22T19:54:09.982Z,4.02
2023-01-22T19:56:37.851Z,5.12
2023-01-22T19:59:07.664Z,5.31
2023-01-22T20:01:36.380Z,5.39
2023-01-22T20:04:04.720Z,5.47
2023-01-22T20:06:31.876Z,5.50
2023-01-22T20:08:59.329Z,5.52
2023-01-22T20:11:26.684Z,5.56
2023-01-22T20:13:53.846Z,5.61
2023-01-22T20:16:23.621Z,5.65
2023-01-22T20:18:51.418Z,5.70
2023-01-22T20:21:19.376Z,5.76
2023-01-22T20:23:47.136Z,5.81
2023-01-22T20:26:14.852Z,5.84
2023-01-22T20:28:41.963Z,5.84
2023-01-22T20:31:19.498Z,5.84
2023-01-22T20:33:48.229Z,5.86
2023-01-22T20:36:16.306Z,5.86
2023-01-22T20:38:45.391Z,5.87
2023-01-22T20:41:12.747Z,5.88
2023-01-22T20:43:40.822Z,5.89
2023-01-22T20:46:11.765Z,5.90
2023-01-22T20:48:41.158Z,5.90
2023-01-22T20:51:15.413Z,5.94
2023-01-22T20:53:43.764Z,5.94
2023-01-22T20:56:14.094Z,5.88
2023-01-22T20:58:41.531Z,5.86
2023-01-22T21:01:11.130Z,5.87
2023-01-22T21:03:38.186Z,5.88
2023-01-22T21:06:07.056Z,5.86
2023-01-22T21:08:34.527Z,5.85
2023-01-22T21:11:06.081Z,5.86
2023-01-22T21:13:33.340Z,5.85
2023-01-22T21:16:08.106Z,5.85
2023-01-22T21:18:35.657Z,5.85
2023-01-22T21:21:04.305Z,5.86
2023-01-22T21:23:31.462Z,5.87
2023-01-22T21:26:12.243Z,5.86
2023-01-22T21:28:39.738Z,5.88
2023-01-22T21:31:08.589Z,5.89
2023-01-22T21:33:36.337Z,5.93
2023-01-22T21:36:04.505Z,5.95
2023-01-22T21:38:31.878Z,5.95
2023-01-22T21:41:10.093Z,5.94
2023-01-22T21:43:55.344Z,5.91
2023-01-22T21:46:22.491Z,5.88
2023-01-22T21:48:49.861Z,5.87
2023-01-22T21:51:17.675Z,5.85
2023-01-22T21:53:44.763Z,5.85
2023-01-22T21:56:11.908Z,5.83
2023-01-22T21:58:41.833Z,5.82
2023-01-22T22:01:09.007Z,5.81
2023-01-22T22:03:36.788Z,5.83
2023-01-22T22:06:04.304Z,5.83
2023-01-22T22:08:31.853Z,5.85
2023-01-22T22:10:59.719Z,5.86
2023-01-22T22:13:26.973Z,5.85
2023-01-22T22:15:54.329Z,5.83
2023-01-22T22:18:21.790Z,5.84
2023-01-22T22:20:48.855Z,5.83
2023-01-22T22:23:15.771Z,5.82
2023-01-22T22:25:47.121Z,5.82
2023-01-22T22:28:14.785Z,5.82
2023-01-22T22:30:41.800Z,5.81
2023-01-22T22:33:08.876Z,5.79
2023-01-22T22:35:36.247Z,5.78
2023-01-22T22:38:03.479Z,5.79
2023-01-22T22:40:32.471Z,5.83
2023-01-22T22:42:59.932Z,5.85
2023-01-22T22:45:26.976Z,5.84
2023-01-22T22:47:53.921Z,5.82
2023-01-22T22:50:21.612Z,5.83
2023-01-22T22:52:49.149Z,5.83
2023-01-22T22:55:16.127Z,5.82
2023-01-22T22:57:43.444Z,5.84
2023-01-22T23:00:12.748Z,5.83
2023-01-22T23:02:40.606Z,5.80
2023-01-22T23:05:08.061Z,5.81
2023-01-22T23:07:36.336Z,5.79
2023-01-22T23:10:04.727Z,5.79
2023-01-22T23:12:31.863Z,5.80
2023-01-22T23:14:59.015Z,5.82
2023-01-22T23:17:26.365Z,5.84
2023-01-22T23:19:53.431Z,5.86
2023-01-22T23:22:20.772Z,5.88
2023-01-22T23:24:47.916Z,5.88
2023-01-22T23:27:15.069Z,5.86
2023-01-22T23:29:42.317Z,5.82
2023-01-22T23:32:09.576Z,5.79
2023-01-22T23:34:37.046Z,5.77
2023-01-22T23:37:03.869Z,5.75
2023-01-22T23:39:31.323Z,5.75
2023-01-22T23:41:58.575Z,5.73
2023-01-22T23:44:25.621Z,5.70
2023-01-22T23:46:52.878Z,5.67
2023-01-22T23:49:19.826Z,5.67
2023-01-22T23:51:46.967Z,5.68
2023-01-22T23:54:14.218Z,5.67
2023-01-22T23:56:41.376Z,5.69
2023-01-22T23:59:10.150Z,5.71
